Time;durP1;ratioP1;P1;durP2;ratioP2;P2;SDS_P1;SDS_P2;PMS_P1;PMS_P2;Temp;Humidity;BMP_temperature;BMP_pressure;BME280_temperature;BME280_humidity;BME280_pressure;Samples;Min_cycle;Max_cycle;Signal;HPM_P1;HPM_P2
2022/09/19 00:01:13;;;;;;;4.03;1.67;;;;;;;;;;5092576;28;20244;-82
2022/09/19 00:03:43;;;;;;;6.53;2.07;;;;;;;;;;5092647;28;20225;-81
2022/09/19 00:06:13;;;;;;;2.60;0.90;;;;;;;;;;5092720;28;20232;-81
2022/09/19 00:08:43;;;;;;;2.27;1.47;;;;;;;;;;5092518;28;20254;-81
2022/09/19 00:11:12;;;;;;;2.23;1.10;;;;;;;;;;5093156;28;20193;-81
2022/09/19 00:13:45;;;;;;;2.93;1.60;;;;;;;;;;5093358;28;20189;-81
2022/09/19 00:16:13;;;;;;;2.17;1.80;;;;;;;;;;5092284;28;20256;-81
2022/09/19 00:18:42;;;;;;;6.50;2.70;;;;;;;;;;5092330;28;20212;-81
2022/09/19 00:21:10;;;;;;;1.53;1.30;;;;;;;;;;5092499;28;20211;-82
2022/09/19 00:26:25;;;;;;;5.10;2.30;;;;;;;;;;5092454;28;20285;-81
2022/09/19 00:28:54;;;;;;;6.33;2.13;;;;;;;;;;5092197;28;20229;-81
2022/09/19 00:31:22;;;;;;;9.43;2.20;;;;;;;;;;5092156;28;20201;-81
2022/09/19 00:33:51;;;;;;;33.10;3.43;;;;;;;;;;5096662;28;20189;-81
2022/09/19 00:36:20;;;;;;;1.23;1.17;;;;;;;;;;5096463;28;20246;-81
2022/09/19 00:38:50;;;;;;;4.10;1.93;;;;;;;;;;5096330;28;20189;-82
2022/09/19 00:41:20;;;;;;;2.77;1.33;;;;;;;;;;5096651;28;20197;-81
2022/09/19 00:43:50;;;;;;;9.27;3.33;;;;;;;;;;5080086;28;20229;-81
2022/09/19 00:46:20;;;;;;;24.47;2.70;;;;;;;;;;5090932;28;20296;-81
2022/09/19 00:48:51;;;;;;;2.40;0.97;;;;;;;;;;5095920;28;20197;-81
2022/09/19 00:51:28;;;;;;;7.63;2.40;;;;;;;;;;5097246;28;20269;-81
2022/09/19 00:53:57;;;;;;;7.07;1.43;;;;;;;;;;5097264;28;20201;-81
2022/09/19 00:56:26;;;;;;;3.00;2.13;;;;;;;;;;5095604;28;20300;-82
2022/09/19 00:58:55;;;;;;;7.83;1.73;;;;;;;;;;5096138;28;20261;-82
2022/09/19 01:01:24;;;;;;;7.03;1.50;;;;;;;;;;5096044;28;20233;-82
2022/09/19 01:03:53;;;;;;;5.63;1.33;;;;;;;;;;5096083;28;20204;-82
2022/09/19 01:06:28;;;;;;;8.87;1.60;;;;;;;;;;5095603;28;20205;-81
2022/09/19 01:09:03;;;;;;;16.53;2.37;;;;;;;;;;5095576;28;20223;-82
2022/09/19 01:11:46;;;;;;;1.20;1.20;;;;;;;;;;5096729;28;20288;-82
2022/09/19 01:14:25;;;;;;;2.80;1.67;;;;;;;;;;5094813;28;20209;-82
2022/09/19 01:16:58;;;;;;;1.53;1.40;;;;;;;;;;5095364;28;20254;-82
2022/09/19 01:19:35;;;;;;;2.03;0.70;;;;;;;;;;5095528;28;20189;-82
2022/09/19 01:22:07;;;;;;;2.73;1.00;;;;;;;;;;5095520;28;20192;-81
2022/09/19 01:24:49;;;;;;;2.40;2.00;;;;;;;;;;5095616;28;20244;-82
2022/09/19 01:27:32;;;;;;;3.03;1.70;;;;;;;;;;5095210;28;20272;-82
2022/09/19 01:30:04;;;;;;;2.57;1.47;;;;;;;;;;5094119;28;20209;-82
2022/09/19 01:32:35;;;;;;;8.30;1.07;;;;;;;;;;5096139;28;20288;-81
2022/09/19 01:35:06;;;;;;;2.50;0.90;;;;;;;;;;5095560;28;20225;-82
2022/09/19 01:37:37;;;;;;;11.60;3.90;;;;;;;;;;5085988;28;20225;-82
2022/09/19 01:40:07;;;;;;;2.33;1.40;;;;;;;;;;5091733;28;20203;-82
2022/09/19 01:42:36;;;;;;;0.73;0.70;;;;;;;;;;5095302;28;20201;-82
2022/09/19 01:45:10;;;;;;;3.83;1.80;;;;;;;;;;5094286;28;20198;-82
2022/09/19 01:47:43;;;;;;;3.63;1.53;;;;;;;;;;5094943;28;20212;-82
2022/09/19 01:50:15;;;;;;;11.03;1.70;;;;;;;;;;5095058;28;20223;-82
2022/09/19 01:52:51;;;;;;;2.50;1.30;;;;;;;;;;5094829;28;20231;-82
2022/09/19 01:55:24;;;;;;;4.87;1.73;;;;;;;;;;5094889;28;20206;-81
2022/09/19 01:57:53;;;;;;;4.27;1.60;;;;;;;;;;5095159;28;20220;-82
2022/09/19 02:00:24;;;;;;;2.60;2.10;;;;;;;;;;5094910;28;20189;-82
2022/09/19 02:02:57;;;;;;;5.20;1.77;;;;;;;;;;5094801;28;20190;-82
2022/09/19 02:05:31;;;;;;;1.90;1.80;;;;;;;;;;5094796;28;20225;-82
2022/09/19 02:08:02;;;;;;;6.07;2.00;;;;;;;;;;5094555;28;20246;-82
2022/09/19 02:10:34;;;;;;;1.37;1.17;;;;;;;;;;5094955;28;20278;-82
2022/09/19 02:13:08;;;;;;;9.70;1.77;;;;;;;;;;5082227;28;20263;-82
2022/09/19 02:15:38;;;;;;;6.90;2.20;;;;;;;;;;5094213;28;20231;-82
2022/09/19 02:18:09;;;;;;;15.00;1.80;;;;;;;;;;5091777;28;20310;-82
2022/09/19 02:20:41;;;;;;;11.83;2.20;;;;;;;;;;5089035;28;20232;-82
2022/09/19 02:23:17;;;;;;;2.57;1.63;;;;;;;;;;5092030;28;20200;-82
2022/09/19 02:25:46;;;;;;;3.10;1.33;;;;;;;;;;5094401;28;20225;-82
2022/09/19 02:28:18;;;;;;;8.00;2.07;;;;;;;;;;5093976;28;20214;-81
2022/09/19 02:30:48;;;;;;;2.00;1.40;;;;;;;;;;5094323;28;20218;-82
2022/09/19 02:33:17;;;;;;;17.23;2.53;;;;;;;;;;5094008;28;20231;-82
2022/09/19 02:35:50;;;;;;;1.33;1.23;;;;;;;;;;5094872;28;20255;-81
2022/09/19 02:38:23;;;;;;;13.00;3.03;;;;;;;;;;5093891;28;20282;-82
2022/09/19 02:40:55;;;;;;;0.70;0.70;;;;;;;;;;5094183;28;20284;-81
2022/09/19 02:43:29;;;;;;;5.87;1.83;;;;;;;;;;5094149;28;20189;-81
2022/09/19 02:46:04;;;;;;;5.20;1.07;;;;;;;;;;5093550;28;20258;-82
2022/09/19 02:48:38;;;;;;;1.60;0.77;;;;;;;;;;5093102;28;20251;-82
2022/09/19 02:51:09;;;;;;;3.97;0.73;;;;;;;;;;5093993;28;20194;-82
2022/09/19 02:53:42;;;;;;;11.03;2.00;;;;;;;;;;5094006;28;20259;-82
2022/09/19 02:56:14;;;;;;;3.53;1.93;;;;;;;;;;5092309;28;20299;-82
2022/09/19 02:58:45;;;;;;;4.07;1.73;;;;;;;;;;5093831;28;20197;-82
2022/09/19 03:01:17;;;;;;;2.73;2.50;;;;;;;;;;5093254;28;20217;-82
2022/09/19 03:06:37;;;;;;;1.90;1.47;;;;;;;;;;5095027;28;20197;-82
2022/09/19 03:09:06;;;;;;;2.77;1.67;;;;;;;;;;5093266;28;20201;-82
2022/09/19 03:11:36;;;;;;;3.83;1.40;;;;;;;;;;5093832;28;20270;-82
2022/09/19 03:14:06;;;;;;;1.80;1.17;;;;;;;;;;5093328;28;20197;-82
2022/09/19 03:16:39;;;;;;;3.20;1.97;;;;;;;;;;5093365;28;20255;-82
2022/09/19 03:19:07;;;;;;;4.23;1.17;;;;;;;;;;5094297;28;20272;-82
2022/09/19 03:21:37;;;;;;;1.83;1.73;;;;;;;;;;5093376;28;20204;-82
2022/09/19 03:24:06;;;;;;;10.13;2.87;;;;;;;;;;5080822;28;20220;-82
2022/09/19 03:26:36;;;;;;;3.10;1.73;;;;;;;;;;5093116;28;20201;-82
2022/09/19 03:29:06;;;;;;;15.30;1.80;;;;;;;;;;5093074;28;20237;-82
2022/09/19 03:31:36;;;;;;;3.10;1.23;;;;;;;;;;5093244;28;20382;-82
2022/09/19 03:34:04;;;;;;;3.77;1.53;;;;;;;;;;5093782;28;20223;-82
2022/09/19 03:36:34;;;;;;;1.87;1.67;;;;;;;;;;5092801;28;20283;-82
2022/09/19 03:39:02;;;;;;;2.57;2.10;;;;;;;;;;5093983;28;20189;-82
2022/09/19 03:41:32;;;;;;;17.40;3.50;;;;;;;;;;5094104;28;20215;-82
2022/09/19 03:44:01;;;;;;;9.33;2.60;;;;;;;;;;5083565;28;20260;-83
2022/09/19 03:46:31;;;;;;;2.70;1.70;;;;;;;;;;5106417;28;20201;-83
2022/09/19 03:49:02;;;;;;;6.67;2.23;;;;;;;;;;5092511;28;20308;-82
2022/09/19 03:51:31;;;;;;;14.03;1.80;;;;;;;;;;5092719;28;20223;-82
2022/09/19 03:53:59;;;;;;;17.87;2.97;;;;;;;;;;5092294;28;20276;-82
2022/09/19 03:56:28;;;;;;;0.40;0.40;;;;;;;;;;5092387;28;20208;-82
2022/09/19 03:58:56;;;;;;;0.40;0.40;;;;;;;;;;5092875;28;20274;-81
2022/09/19 04:01:24;;;;;;;0.40;0.40;;;;;;;;;;5079182;28;20311;-82
2022/09/19 04:03:53;;;;;;;0.40;0.40;;;;;;;;;;5092234;28;20230;-81
2022/09/19 04:06:23;;;;;;;0.40;0.40;;;;;;;;;;5092330;28;20208;-81
2022/09/19 04:08:51;;;;;;;0.40;0.40;;;;;;;;;;5092249;28;20341;-82
2022/09/19 04:11:20;;;;;;;0.40;0.40;;;;;;;;;;5080381;28;20201;-81
2022/09/19 04:13:50;;;;;;;0.40;0.40;;;;;;;;;;5092164;28;20201;-81
2022/09/19 04:16:19;;;;;;;0.40;0.40;;;;;;;;;;5093109;28;20292;-82
2022/09/19 04:18:50;;;;;;;0.40;0.40;;;;;;;;;;5093498;28;20205;-81
2022/09/19 04:21:18;;;;;;;0.40;0.40;;;;;;;;;;5092311;28;20200;-82
2022/09/19 04:23:48;;;;;;;0.40;0.40;;;;;;;;;;5092427;28;20200;-82
2022/09/19 04:26:16;;;;;;;0.40;0.40;;;;;;;;;;5091968;28;20200;-82
2022/09/19 04:28:46;;;;;;;0.40;0.40;;;;;;;;;;5092308;28;20205;-81
2022/09/19 04:31:14;;;;;;;0.40;0.40;;;;;;;;;;5081150;28;20198;-82
2022/09/19 04:33:43;;;;;;;0.40;0.40;;;;;;;;;;5090673;28;20250;-82
2022/09/19 04:36:13;;;;;;;0.40;0.40;;;;;;;;;;5079747;28;20238;-82
2022/09/19 04:38:41;;;;;;;0.40;0.40;;;;;;;;;;5091799;28;20242;-82
2022/09/19 04:41:14;;;;;;;0.40;0.40;;;;;;;;;;5092291;28;20266;-82
2022/09/19 04:43:43;;;;;;;0.40;0.40;;;;;;;;;;5079551;28;20208;-82
2022/09/19 04:46:12;;;;;;;0.40;0.40;;;;;;;;;;5092213;28;20233;-82
2022/09/19 04:48:43;;;;;;;0.30;0.30;;;;;;;;;;5092009;28;20219;-81
2022/09/19 04:51:12;;;;;;;0.40;0.40;;;;;;;;;;5092172;28;20284;-81
2022/09/19 04:53:40;;;;;;;0.40;0.40;;;;;;;;;;5093152;28;20201;-82
2022/09/19 04:56:10;;;;;;;0.40;0.40;;;;;;;;;;5091743;28;20290;-81
2022/09/19 04:58:40;;;;;;;0.43;0.43;;;;;;;;;;5091867;28;20206;-81
2022/09/19 05:01:10;;;;;;;0.40;0.40;;;;;;;;;;5093054;28;20252;-81
2022/09/19 05:03:39;;;;;;;0.40;0.40;;;;;;;;;;5091950;28;20197;-81
2022/09/19 05:06:07;;;;;;;0.40;0.40;;;;;;;;;;5091251;28;20201;-81
2022/09/19 05:08:37;;;;;;;0.40;0.40;;;;;;;;;;5091918;28;20291;-82
2022/09/19 05:11:06;;;;;;;0.43;0.43;;;;;;;;;;5092070;28;20197;-82
2022/09/19 05:13:37;;;;;;;0.40;0.40;;;;;;;;;;5091669;28;20296;-82
2022/09/19 05:16:08;;;;;;;0.40;0.40;;;;;;;;;;5079283;28;20257;-82
2022/09/19 05:18:37;;;;;;;0.50;0.50;;;;;;;;;;5092897;28;20212;-82
2022/09/19 05:21:06;;;;;;;0.50;0.50;;;;;;;;;;5095221;28;20201;-81
2022/09/19 05:23:36;;;;;;;0.40;0.40;;;;;;;;;;5094905;28;20288;-81
2022/09/19 05:26:05;;;;;;;0.50;0.50;;;;;;;;;;5094973;28;20189;-82
2022/09/19 05:28:34;;;;;;;0.50;0.50;;;;;;;;;;5096228;28;20197;-82
2022/09/19 05:31:05;;;;;;;0.40;0.40;;;;;;;;;;5085678;28;20288;-81
2022/09/19 05:33:36;;;;;;;0.40;0.40;;;;;;;;;;5079936;28;20202;-82
2022/09/19 05:36:05;;;;;;;0.40;0.40;;;;;;;;;;5096423;28;20291;-82
2022/09/19 05:38:34;;;;;;;0.40;0.40;;;;;;;;;;5095011;28;20229;-82
2022/09/19 05:41:03;;;;;;;0.40;0.40;;;;;;;;;;5096508;28;20210;-81
2022/09/19 05:43:32;;;;;;;0.40;0.40;;;;;;;;;;5081278;28;20311;-82
2022/09/19 05:46:00;;;;;;;0.40;0.40;;;;;;;;;;5095456;28;20303;-82
2022/09/19 05:48:29;;;;;;;0.40;0.40;;;;;;;;;;5094998;28;20201;-82
2022/09/19 05:50:59;;;;;;;0.40;0.40;;;;;;;;;;5095762;28;20302;-83
2022/09/19 05:56:13;;;;;;;0.40;0.40;;;;;;;;;;5095095;28;20197;-84
2022/09/19 05:58:42;;;;;;;0.40;0.40;;;;;;;;;;5094724;28;20244;-83
2022/09/19 06:01:11;;;;;;;0.40;0.40;;;;;;;;;;5094324;28;20213;-84
2022/09/19 06:03:39;;;;;;;0.40;0.40;;;;;;;;;;5095035;28;20268;-84
2022/09/19 06:06:11;;;;;;;0.40;0.40;;;;;;;;;;5094547;28;20197;-84
2022/09/19 06:08:40;;;;;;;0.30;0.30;;;;;;;;;;5094489;28;20201;-85
2022/09/19 06:11:11;;;;;;;0.40;0.40;;;;;;;;;;5094950;28;20216;-83
2022/09/19 06:16:26;;;;;;;0.40;0.40;;;;;;;;;;5084726;28;20256;-84
2022/09/19 06:18:55;;;;;;;0.40;0.40;;;;;;;;;;5095387;28;20205;-84
2022/09/19 06:21:25;;;;;;;0.30;0.30;;;;;;;;;;5095332;28;20197;-84
2022/09/19 06:23:53;;;;;;;0.40;0.40;;;;;;;;;;5094459;28;20260;-84
2022/09/19 06:26:22;;;;;;;0.40;0.40;;;;;;;;;;5093787;28;20209;-85
2022/09/19 06:28:51;;;;;;;0.37;0.37;;;;;;;;;;5094200;28;20223;-84
2022/09/19 06:31:19;;;;;;;0.40;0.40;;;;;;;;;;5093490;28;20215;-84
2022/09/19 06:33:51;;;;;;;0.40;0.40;;;;;;;;;;5095388;28;20223;-84
2022/09/19 06:36:19;;;;;;;0.40;0.40;;;;;;;;;;5094179;28;20223;-85
2022/09/19 06:38:50;;;;;;;0.40;0.40;;;;;;;;;;5093955;28;20204;-85
2022/09/19 06:41:19;;;;;;;0.40;0.40;;;;;;;;;;5094992;28;20201;-84
2022/09/19 06:43:47;;;;;;;0.40;0.40;;;;;;;;;;5095786;28;20292;-84
2022/09/19 06:46:16;;;;;;;0.40;0.40;;;;;;;;;;5092978;28;20208;-84
2022/09/19 06:49:00;;;;;;;;;;;;;;;;;;;;;
2022/09/19 06:51:35;;;;;;;0.40;0.40;;;;;;;;;;5093490;28;20219;-84
2022/09/19 06:54:08;;;;;;;0.30;0.30;;;;;;;;;;5093508;28;20250;-84
2022/09/19 06:56:36;;;;;;;0.40;0.40;;;;;;;;;;5093424;28;20200;-83
2022/09/19 07:06:23;;;;;;;5.57;2.20;;;;;;;;;;5045945;28;20202;-83
2022/09/19 07:09:52;;;;;;;3.00;1.87;;;;;;;;;;5061451;28;20278;-83
2022/09/19 07:24:35;;;;;;;3.33;1.20;;;;;;;;;;5115959;27;20202;-83
2022/09/19 07:27:42;;;;;;;1.30;1.20;;;;;;;;;;5094586;28;20204;-81
2022/09/19 07:30:33;;;;;;;3.33;1.37;;;;;;;;;;5105265;27;20227;-80
2022/09/19 07:33:56;;;;;;;0.40;0.40;;;;;;;;;;5058699;28;20201;-80
2022/09/19 07:44:42;;;;;;;0.40;0.40;;;;;;;;;;5005110;28;20278;-82
2022/09/19 07:47:31;;;;;;;0.40;0.40;;;;;;;;;;5023787;28;20221;-81
2022/09/19 07:50:07;;;;;;;0.40;0.40;;;;;;;;;;5081067;28;20212;-80
2022/09/19 07:52:40;;;;;;;0.30;0.30;;;;;;;;;;5080296;28;20201;-82
2022/09/19 07:55:18;;;;;;;0.40;0.40;;;;;;;;;;5086808;28;20291;-81
2022/09/19 07:57:58;;;;;;;0.30;0.30;;;;;;;;;;5105013;27;20241;-80
2022/09/19 08:00:36;;;;;;;0.40;0.40;;;;;;;;;;5079239;28;20280;-80
2022/09/19 08:03:15;;;;;;;0.40;0.40;;;;;;;;;;5089046;28;20261;-80
2022/09/19 08:08:55;;;;;;;0.40;0.40;;;;;;;;;;5099338;27;20270;-82
2022/09/19 08:11:38;;;;;;;0.30;0.30;;;;;;;;;;5078009;28;20212;-81
2022/09/19 08:14:37;;;;;;;0.40;0.40;;;;;;;;;;5093182;28;20288;-82
2022/09/19 08:17:22;;;;;;;0.30;0.30;;;;;;;;;;5104420;27;20211;-83
2022/09/19 08:20:14;;;;;;;0.30;0.30;;;;;;;;;;5095892;28;20239;-83
2022/09/19 08:23:06;;;;;;;0.40;0.40;;;;;;;;;;5081110;28;20209;-83
2022/09/19 08:25:46;;;;;;;0.40;0.40;;;;;;;;;;5086124;28;20300;-83
2022/09/19 08:28:30;;;;;;;0.30;0.30;;;;;;;;;;5080223;28;20225;-83
2022/09/19 08:34:45;;;;;;;0.30;0.30;;;;;;;;;;5084087;28;20199;-82
2022/09/19 08:51:47;;;;;;;0.40;0.40;;;;;;;;;;4972199;28;20235;-83
2022/09/19 08:58:11;;;;;;;0.43;0.43;;;;;;;;;;5010364;28;20199;-83
2022/09/19 09:04:28;;;;;;;;;;;;;;;;;;;;;
2022/09/19 09:15:43;;;;;;;0.40;0.40;;;;;;;;;;5006053;27;20224;-82
2022/09/19 09:18:42;;;;;;;0.40;0.40;;;;;;;;;;5106013;27;20200;-82
2022/09/19 09:21:25;;;;;;;0.40;0.40;;;;;;;;;;5083431;28;20205;-81
2022/09/19 09:24:00;;;;;;;0.40;0.40;;;;;;;;;;5080219;28;20229;-81
2022/09/19 09:26:56;;;;;;;0.30;0.30;;;;;;;;;;5078314;28;20276;-82
2022/09/19 09:29:37;;;;;;;0.30;0.30;;;;;;;;;;5081013;28;20205;-82
2022/09/19 09:32:18;;;;;;;0.30;0.30;;;;;;;;;;5081794;28;20222;-82
2022/09/19 09:34:58;;;;;;;0.40;0.40;;;;;;;;;;5100145;28;20189;-83
2022/09/19 09:37:36;;;;;;;0.40;0.40;;;;;;;;;;5088069;28;20197;-83
2022/09/19 09:40:12;;;;;;;0.40;0.40;;;;;;;;;;5099796;28;20270;-84
2022/09/19 09:42:46;;;;;;;0.40;0.40;;;;;;;;;;5098979;28;20228;-84
2022/09/19 09:45:20;;;;;;;0.40;0.40;;;;;;;;;;5105074;28;20205;-84
2022/09/19 09:47:59;;;;;;;0.30;0.30;;;;;;;;;;5078109;28;20202;-83
2022/09/19 09:50:37;;;;;;;0.30;0.30;;;;;;;;;;5084264;28;20254;-82
2022/09/19 09:53:10;;;;;;;0.40;0.40;;;;;;;;;;5084315;28;20203;-83
2022/09/19 10:03:34;;;;;;;0.30;0.30;;;;;;;;;;5081747;28;20262;-81
2022/09/19 10:05:15;;;;;;;0.30;0.30;;;;;;;;;;5100704;28;20197;-83
2022/09/19 10:07:48;;;;;;;0.30;0.30;;;;;;;;;;5095118;28;20200;-82
2022/09/19 10:10:22;;;;;;;0.30;0.30;;;;;;;;;;5086613;28;20204;-82
2022/09/19 10:13:02;;;;;;;0.30;0.30;;;;;;;;;;5076386;28;20219;-83
2022/09/19 10:15:40;;;;;;;0.30;0.30;;;;;;;;;;5080400;28;20196;-83
2022/09/19 10:18:10;;;;;;;0.30;0.30;;;;;;;;;;5088729;28;20266;-83
2022/09/19 10:20:49;;;;;;;0.40;0.40;;;;;;;;;;5103595;27;20325;-82
2022/09/19 10:23:37;;;;;;;0.30;0.30;;;;;;;;;;5102490;28;20199;-83
2022/09/19 10:26:19;;;;;;;0.30;0.30;;;;;;;;;;5097912;28;20226;-83
2022/09/19 10:28:56;;;;;;;0.40;0.40;;;;;;;;;;5097627;28;20265;-81
2022/09/19 10:31:32;;;;;;;0.40;0.40;;;;;;;;;;5103223;28;20220;-81
2022/09/19 10:34:30;;;;;;;0.40;0.40;;;;;;;;;;5101485;28;20199;-81
2022/09/19 10:37:09;;;;;;;0.30;0.30;;;;;;;;;;5103480;27;20206;-83
2022/09/19 10:39:52;;;;;;;0.40;0.40;;;;;;;;;;5100134;28;20193;-83
2022/09/19 10:42:31;;;;;;;0.40;0.40;;;;;;;;;;5099827;27;20196;-82
2022/09/19 10:45:07;;;;;;;2.70;1.10;;;;;;;;;;5099700;27;20235;-83
2022/09/19 10:47:39;;;;;;;4.87;1.80;;;;;;;;;;5103538;28;20189;-81
2022/09/19 10:50:17;;;;;;;4.87;2.03;;;;;;;;;;5120170;27;20203;-83
2022/09/19 10:52:51;;;;;;;4.47;2.17;;;;;;;;;;5104428;28;20230;-83
2022/09/19 10:55:25;;;;;;;4.47;1.37;;;;;;;;;;5105101;28;20202;-83
2022/09/19 10:58:03;;;;;;;4.13;1.23;;;;;;;;;;5119710;27;20206;-85
2022/09/19 11:00:36;;;;;;;1.97;1.00;;;;;;;;;;5102680;28;20211;-83
2022/09/19 11:03:20;;;;;;;0.50;0.50;;;;;;;;;;5107105;28;20208;-83
2022/09/19 11:06:06;;;;;;;3.23;1.13;;;;;;;;;;5110539;27;20208;-87
2022/09/19 11:12:22;;;;;;;1.13;1.13;;;;;;;;;;5055646;28;20310;-82
2022/09/19 11:15:02;;;;;;;3.77;2.13;;;;;;;;;;5095631;28;20203;-84
2022/09/19 11:18:02;;;;;;;1.30;0.80;;;;;;;;;;5100940;28;20209;-85
2022/09/19 11:20:42;;;;;;;1.37;1.17;;;;;;;;;;5097039;27;20419;-83
2022/09/19 11:23:43;;;;;;;1.07;0.93;;;;;;;;;;5089557;28;20209;-83
2022/09/19 11:26:34;;;;;;;1.53;1.00;;;;;;;;;;5052066;28;20228;-81
2022/09/19 11:32:06;;;;;;;2.97;1.33;;;;;;;;;;5097161;27;20243;-82
2022/09/19 11:35:01;;;;;;;1.20;1.10;;;;;;;;;;5097375;28;20211;-84
2022/09/19 11:37:54;;;;;;;5.10;1.63;;;;;;;;;;5092974;28;20201;-83
2022/09/19 11:40:56;;;;;;;2.03;1.27;;;;;;;;;;5095728;28;20295;-83
2022/09/19 11:43:51;;;;;;;1.47;0.90;;;;;;;;;;5048152;27;20217;-81
2022/09/19 11:46:41;;;;;;;0.40;0.40;;;;;;;;;;5107945;27;20205;-82
2022/09/19 11:49:53;;;;;;;0.40;0.40;;;;;;;;;;5096441;27;20208;-82
2022/09/19 11:52:37;;;;;;;0.40;0.40;;;;;;;;;;5032816;28;20314;-83
2022/09/19 11:55:15;;;;;;;0.40;0.40;;;;;;;;;;5052700;28;20194;-83
2022/09/19 11:58:05;;;;;;;0.40;0.40;;;;;;;;;;5090367;28;20277;-83
2022/09/19 12:01:03;;;;;;;0.40;0.40;;;;;;;;;;5097531;27;20241;-82
2022/09/19 12:03:43;;;;;;;0.40;0.40;;;;;;;;;;5103885;28;20213;-82
2022/09/19 12:06:28;;;;;;;0.40;0.40;;;;;;;;;;5098921;28;20200;-81
2022/09/19 12:09:08;;;;;;;0.40;0.40;;;;;;;;;;5113773;27;20210;-81
2022/09/19 12:11:55;;;;;;;0.37;0.37;;;;;;;;;;5115769;27;20277;-82
2022/09/19 12:17:42;;;;;;;0.40;0.40;;;;;;;;;;5093384;28;20204;-82
2022/09/19 12:20:18;;;;;;;0.40;0.40;;;;;;;;;;5090220;28;20255;-80
2022/09/19 12:22:51;;;;;;;0.40;0.40;;;;;;;;;;5096159;28;20196;-80
2022/09/19 12:25:20;;;;;;;0.40;0.40;;;;;;;;;;5094915;28;20224;-80
2022/09/19 12:27:54;;;;;;;0.40;0.40;;;;;;;;;;5107777;28;20228;-81
2022/09/19 12:30:30;;;;;;;0.40;0.40;;;;;;;;;;5097739;28;20200;-82
2022/09/19 12:33:11;;;;;;;0.40;0.40;;;;;;;;;;5097723;28;20225;-82
2022/09/19 12:35:42;;;;;;;0.40;0.40;;;;;;;;;;5096488;28;20220;-80
2022/09/19 12:38:18;;;;;;;0.40;0.40;;;;;;;;;;5095458;28;20229;-82
2022/09/19 12:40:53;;;;;;;0.40;0.40;;;;;;;;;;5099536;28;20254;-80
2022/09/19 12:43:38;;;;;;;0.40;0.40;;;;;;;;;;5098690;28;20209;-82
2022/09/19 12:46:14;;;;;;;0.30;0.30;;;;;;;;;;5096957;28;20308;-81
2022/09/19 12:52:01;;;;;;;0.30;0.30;;;;;;;;;;5089461;28;20205;-83
2022/09/19 12:54:36;;;;;;;0.40;0.40;;;;;;;;;;5095718;28;20192;-82
2022/09/19 12:57:11;;;;;;;0.40;0.40;;;;;;;;;;5089385;28;20225;-82
2022/09/19 12:59:40;;;;;;;0.40;0.40;;;;;;;;;;5100296;28;20207;-81
2022/09/19 13:02:18;;;;;;;0.40;0.40;;;;;;;;;;5090373;28;20223;-81
2022/09/19 13:04:52;;;;;;;0.40;0.40;;;;;;;;;;5099074;28;20197;-83
2022/09/19 13:07:29;;;;;;;0.30;0.30;;;;;;;;;;5094690;28;20216;-81
2022/09/19 13:10:00;;;;;;;0.40;0.40;;;;;;;;;;5089749;28;20208;-82
2022/09/19 13:12:35;;;;;;;0.40;0.40;;;;;;;;;;5096745;28;20212;-81
2022/09/19 13:15:05;;;;;;;0.40;0.40;;;;;;;;;;5104370;28;20207;-81
2022/09/19 13:23:35;;;;;;;0.40;0.40;;;;;;;;;;5094246;28;20261;-80
2022/09/19 13:26:27;;;;;;;0.30;0.30;;;;;;;;;;5093397;28;20213;-80
2022/09/19 13:28:56;;;;;;;0.80;0.80;;;;;;;;;;5091340;28;20196;-80
2022/09/19 13:31:25;;;;;;;0.40;0.40;;;;;;;;;;5093535;28;20212;-80
2022/09/19 13:33:58;;;;;;;0.30;0.30;;;;;;;;;;5092299;28;20213;-81
2022/09/19 13:36:43;;;;;;;0.40;0.40;;;;;;;;;;5094497;28;20205;-78
2022/09/19 13:39:30;;;;;;;0.40;0.40;;;;;;;;;;5112150;27;20234;-81
2022/09/19 13:42:00;;;;;;;0.40;0.40;;;;;;;;;;5101452;27;20204;-78
2022/09/19 13:44:36;;;;;;;0.30;0.30;;;;;;;;;;5098156;27;20193;-80
2022/09/19 13:47:11;;;;;;;0.30;0.30;;;;;;;;;;5102195;27;20192;-81
2022/09/19 13:49:49;;;;;;;0.40;0.40;;;;;;;;;;5101576;28;20201;-82
2022/09/19 13:52:32;;;;;;;0.30;0.30;;;;;;;;;;5098229;28;20327;-81
2022/09/19 13:55:04;;;;;;;0.30;0.30;;;;;;;;;;5097210;27;20307;-81
2022/09/19 13:57:39;;;;;;;0.30;0.30;;;;;;;;;;5095394;27;20237;-82
2022/09/19 14:00:17;;;;;;;0.30;0.30;;;;;;;;;;5108516;27;20255;-80
2022/09/19 14:03:01;;;;;;;7.20;2.20;;;;;;;;;;5093713;27;20298;-81
2022/09/19 14:05:32;;;;;;;2.00;1.50;;;;;;;;;;5097004;27;20231;-81
2022/09/19 14:08:03;;;;;;;10.63;2.30;;;;;;;;;;5099753;28;20193;-81
2022/09/19 14:10:56;;;;;;;1.67;1.03;;;;;;;;;;5100690;27;20202;-80
2022/09/19 14:13:38;;;;;;;2.03;1.10;;;;;;;;;;5099297;28;20216;-80
2022/09/19 14:16:21;;;;;;;8.03;2.40;;;;;;;;;;5095725;27;20280;-82
2022/09/19 14:18:54;;;;;;;3.50;0.67;;;;;;;;;;5098228;27;20213;-79
2022/09/19 14:21:55;;;;;;;0.70;0.70;;;;;;;;;;5100877;27;20209;-80
2022/09/19 14:24:42;;;;;;;8.40;1.27;;;;;;;;;;5101419;27;20224;-80
2022/09/19 14:27:18;;;;;;;1.77;1.33;;;;;;;;;;5098278;27;20264;-79
2022/09/19 14:29:57;;;;;;;1.20;1.13;;;;;;;;;;5100136;27;20193;-79
2022/09/19 14:32:29;;;;;;;4.07;1.13;;;;;;;;;;5095859;27;20221;-80
2022/09/19 14:35:21;;;;;;;4.63;0.93;;;;;;;;;;5098217;27;20244;-79
2022/09/19 14:38:03;;;;;;;1.90;0.90;;;;;;;;;;5105162;27;20203;-80
2022/09/19 14:40:40;;;;;;;1.80;1.23;;;;;;;;;;5107514;27;20213;-79
2022/09/19 14:43:29;;;;;;;1.03;0.70;;;;;;;;;;5101139;27;20207;-81
2022/09/19 14:46:20;;;;;;;2.83;1.30;;;;;;;;;;5066184;27;20206;-81
2022/09/19 14:49:09;;;;;;;2.60;1.60;;;;;;;;;;5097402;27;20208;-82
2022/09/19 14:51:42;;;;;;;4.67;1.43;;;;;;;;;;5104789;27;20306;-82
2022/09/19 14:54:36;;;;;;;3.30;1.13;;;;;;;;;;5108914;27;20207;-85
2022/09/19 14:57:35;;;;;;;0.87;0.87;;;;;;;;;;5102427;27;20249;-83
2022/09/19 15:03:24;;;;;;;0.93;0.80;;;;;;;;;;5110657;28;20196;-82
2022/09/19 15:09:19;;;;;;;2.73;1.23;;;;;;;;;;5109545;27;20202;-83
2022/09/19 15:12:14;;;;;;;4.00;1.47;;;;;;;;;;5102608;27;20213;-83
2022/09/19 15:15:09;;;;;;;1.03;1.03;;;;;;;;;;5115933;27;20204;-83
2022/09/19 15:18:03;;;;;;;7.50;1.50;;;;;;;;;;5105581;27;20202;-83
2022/09/19 15:21:02;;;;;;;1.27;0.90;;;;;;;;;;5110267;27;20235;-83
2022/09/19 15:23:35;;;;;;;3.00;1.40;;;;;;;;;;5112438;28;20207;-83
2022/09/19 15:26:17;;;;;;;5.33;1.13;;;;;;;;;;5103322;28;20208;-83
2022/09/19 15:29:01;;;;;;;1.70;1.17;;;;;;;;;;5113632;28;20235;-83
2022/09/19 15:31:45;;;;;;;2.07;1.33;;;;;;;;;;5113224;28;20234;-83
2022/09/19 15:34:19;;;;;;;7.87;3.27;;;;;;;;;;5112967;28;20236;-83
2022/09/19 15:36:48;;;;;;;9.80;1.40;;;;;;;;;;5112937;28;20242;-83
2022/09/19 15:39:17;;;;;;;2.77;0.70;;;;;;;;;;5113184;28;20212;-83
2022/09/19 15:41:45;;;;;;;4.40;1.40;;;;;;;;;;5112234;28;20225;-83
2022/09/19 15:44:26;;;;;;;3.00;0.90;;;;;;;;;;5114216;28;20249;-82
2022/09/19 15:47:02;;;;;;;2.83;0.70;;;;;;;;;;5099700;28;20261;-83
2022/09/19 15:49:35;;;;;;;4.43;1.83;;;;;;;;;;5112959;28;20194;-83
2022/09/19 15:52:07;;;;;;;1.40;0.90;;;;;;;;;;5113019;28;20284;-82
2022/09/19 15:54:39;;;;;;;0.70;0.70;;;;;;;;;;5112572;28;20259;-83
2022/09/19 15:57:15;;;;;;;1.60;1.27;;;;;;;;;;5113111;28;20202;-83
2022/09/19 15:59:47;;;;;;;5.90;1.37;;;;;;;;;;5112849;28;20195;-83
2022/09/19 16:02:23;;;;;;;0.70;0.70;;;;;;;;;;5112985;28;20243;-83
2022/09/19 16:05:06;;;;;;;0.70;0.70;;;;;;;;;;5099741;28;20197;-83
2022/09/19 16:10:26;;;;;;;1.90;0.83;;;;;;;;;;5113037;28;20207;-83
2022/09/19 16:13:34;;;;;;;1.53;1.43;;;;;;;;;;5103877;28;20199;-83
2022/09/19 16:16:05;;;;;;;2.07;1.60;;;;;;;;;;5112474;28;20283;-83
2022/09/19 16:18:48;;;;;;;2.87;1.33;;;;;;;;;;5112134;28;20195;-84
2022/09/19 16:21:17;;;;;;;1.60;1.10;;;;;;;;;;5112504;28;20280;-83
2022/09/19 16:23:48;;;;;;;2.73;0.97;;;;;;;;;;5112359;28;20245;-83
2022/09/19 16:26:17;;;;;;;0.50;0.50;;;;;;;;;;5113405;28;20259;-85
2022/09/19 16:28:49;;;;;;;1.50;1.13;;;;;;;;;;5112612;28;20200;-85
2022/09/19 16:31:22;;;;;;;1.03;1.03;;;;;;;;;;5112767;28;20199;-85
2022/09/19 16:33:53;;;;;;;2.20;0.70;;;;;;;;;;5112022;28;20206;-86
2022/09/19 16:36:22;;;;;;;1.00;1.00;;;;;;;;;;5112331;28;20202;-86
2022/09/19 16:39:08;;;;;;;1.10;1.10;;;;;;;;;;5126243;28;20276;-85
2022/09/19 16:41:42;;;;;;;2.10;1.00;;;;;;;;;;5103330;28;20206;-85
2022/09/19 16:44:23;;;;;;;2.37;1.47;;;;;;;;;;5112742;28;20206;-85
2022/09/19 16:46:54;;;;;;;0.63;0.63;;;;;;;;;;5111850;28;20219;-86
2022/09/19 16:49:23;;;;;;;0.67;0.60;;;;;;;;;;5112124;28;20233;-85
2022/09/19 16:51:52;;;;;;;12.47;1.57;;;;;;;;;;5112734;28;20201;-85
2022/09/19 16:54:21;;;;;;;1.70;1.03;;;;;;;;;;5112371;28;20227;-86
2022/09/19 16:56:50;;;;;;;2.63;1.00;;;;;;;;;;5112252;28;20252;-86
2022/09/19 16:59:20;;;;;;;1.57;1.30;;;;;;;;;;5112444;28;20223;-85
2022/09/19 17:01:48;;;;;;;1.60;0.83;;;;;;;;;;5112349;28;20309;-86
2022/09/19 17:04:19;;;;;;;1.37;1.10;;;;;;;;;;5110598;28;20204;-86
2022/09/19 17:06:50;;;;;;;1.70;1.57;;;;;;;;;;5113335;28;20208;-86
2022/09/19 17:09:18;;;;;;;1.13;1.13;;;;;;;;;;5112497;28;20199;-86
2022/09/19 17:11:47;;;;;;;2.53;1.20;;;;;;;;;;5112418;28;20203;-85
2022/09/19 17:14:17;;;;;;;3.00;0.70;;;;;;;;;;5113348;28;20196;-85
2022/09/19 17:16:45;;;;;;;1.50;1.30;;;;;;;;;;5115480;28;20230;-85
2022/09/19 17:19:14;;;;;;;1.33;0.97;;;;;;;;;;5117108;27;20285;-85
2022/09/19 17:21:43;;;;;;;3.60;1.10;;;;;;;;;;5119893;27;20203;-85
2022/09/19 17:24:12;;;;;;;1.70;1.53;;;;;;;;;;5119401;27;20262;-85